createdAt,value
2023-04-02T00:00:29.910Z,99807.75
2023-04-02T00:02:34.020Z,99812.09
2023-04-02T00:04:38.093Z,99813.78
2023-04-02T00:06:44.898Z,99814.63
2023-04-02T00:08:48.898Z,99812.91
2023-04-02T00:10:53.805Z,99817.28
2023-04-02T00:13:01.758Z,99817.28
2023-04-02T00:15:07.509Z,99825.03
2023-04-02T00:17:10.612Z,99824.19
2023-04-02T00:19:17.803Z,99827.66
2023-04-02T00:21:23.823Z,99827.69
2023-04-02T00:23:27.614Z,99832.00
2023-04-02T00:25:35.284Z,99825.94
2023-04-02T00:27:38.276Z,99841.56
2023-04-02T00:29:47.493Z,99836.34
2023-04-02T00:31:55.527Z,99832.00
2023-04-02T00:34:00.529Z,99845.03
2023-04-02T00:36:07.806Z,99845.03
2023-04-02T00:38:20.977Z,99839.81
2023-04-02T00:40:27.249Z,99843.28
2023-04-02T00:42:32.120Z,99840.66
2023-04-02T00:44:37.875Z,99848.44
2023-04-02T00:46:46.700Z,99845.81
2023-04-02T00:48:55.412Z,99843.22
2023-04-02T00:51:02.136Z,99846.72
2023-04-02T00:53:11.564Z,99848.41
2023-04-02T00:55:18.405Z,99843.22
2023-04-02T00:57:25.525Z,99844.13
2023-04-02T00:59:31.768Z,99839.78
2023-04-02T01:01:42.539Z,99844.13
2023-04-02T01:03:59.051Z,99848.41
2023-04-02T01:06:10.742Z,99851.84
2023-04-02T01:08:21.750Z,99854.47
2023-04-02T01:10:40.316Z,99855.34
2023-04-02T01:12:56.727Z,99855.38
2023-04-02T01:15:09.811Z,99850.16
2023-04-02T01:17:26.362Z,99857.97
2023-04-02T01:20:07.067Z,99851.91
2023-04-02T01:22:15.660Z,99857.97
2023-04-02T01:24:20.291Z,99859.72
2023-04-02T01:26:41.873Z,99859.72
2023-04-02T01:29:01.355Z,99857.97
2023-04-02T01:31:05.657Z,99866.59
2023-04-02T01:33:08.681Z,99868.34
2023-04-02T01:35:12.107Z,99872.66
2023-04-02T01:37:27.399Z,99870.94
2023-04-02T01:39:35.913Z,99878.69
2023-04-02T01:41:47.376Z,99877.84
2023-04-02T01:43:57.124Z,99877.00
2023-04-02T01:46:00.680Z,99883.88
2023-04-02T01:48:07.206Z,99880.41
2023-04-02T01:50:23.455Z,99880.44
2023-04-02T01:52:37.891Z,99878.75
2023-04-02T01:54:42.596Z,99891.66
2023-04-02T01:56:47.183Z,99889.94
2023-04-02T01:58:51.446Z,99890.78
2023-04-02T02:00:59.471Z,99889.88
2023-04-02T02:03:03.447Z,99885.59
2023-04-02T02:05:07.499Z,99890.78
2023-04-02T02:07:15.989Z,99895.16
2023-04-02T02:09:24.828Z,99895.13
2023-04-02T02:11:30.557Z,99898.56
2023-04-02T02:13:33.495Z,99894.25
2023-04-02T02:15:37.810Z,99899.44
2023-04-02T02:17:40.739Z,99886.47
2023-04-02T02:19:46.465Z,99894.31
2023-04-02T02:21:52.488Z,99893.44
2023-04-02T02:23:56.625Z,99903.78
2023-04-02T02:25:59.777Z,99906.38
2023-04-02T02:28:07.535Z,99908.97
2023-04-02T02:30:15.430Z,99910.66
2023-04-02T02:32:22.353Z,99914.16
2023-04-02T02:34:34.954Z,99915.03
2023-04-02T02:36:45.819Z,99917.66
2023-04-02T02:38:55.563Z,99915.94
2023-04-02T02:41:14.332Z,99915.03
2023-04-02T02:43:20.089Z,99919.38
2023-04-02T02:45:28.792Z,99922.84
2023-04-02T02:47:36.238Z,99936.66
2023-04-02T02:49:44.185Z,99944.38
2023-04-02T02:51:50.762Z,99934.00
2023-04-02T02:54:04.593Z,99936.59
2023-04-02T02:56:09.844Z,99935.84
2023-04-02T02:58:19.267Z,99941.91
2023-04-02T03:00:36.965Z,99941.03
2023-04-02T03:02:43.394Z,99950.56
2023-04-02T03:04:49.289Z,99949.69
2023-04-02T03:06:54.297Z,99952.25
2023-04-02T03:09:05.804Z,99951.34
2023-04-02T03:11:15.257Z,99950.47
2023-04-02T03:13:23.233Z,99951.41
2023-04-02T03:15:35.462Z,99955.75
2023-04-02T03:17:45.419Z,99965.28
2023-04-02T03:19:55.607Z,99960.97
2023-04-02T03:22:04.809Z,99965.28
2023-04-02T03:24:16.023Z,99962.72
2023-04-02T03:26:23.860Z,99973.13
2023-04-02T03:28:31.619Z,99970.44
2023-04-02T03:30:41.489Z,99976.41
2023-04-02T03:32:49.714Z,99974.56
2023-04-02T03:34:57.797Z,99981.53
2023-04-02T03:37:06.477Z,99984.13
2023-04-02T03:39:15.939Z,99988.50
2023-04-02T03:41:34.887Z,99988.44
2023-04-02T03:43:41.897Z,99990.09
2023-04-02T03:45:51.196Z,99997.03
2023-04-02T03:48:00.264Z,99999.66
2023-04-02T03:50:08.114Z,99999.72
2023-04-02T03:52:14.448Z,100006.63
2023-04-02T03:54:18.652Z,99998.03
2023-04-02T03:56:28.975Z,100011.03
2023-04-02T03:58:39.195Z,100012.75
2023-04-02T04:00:49.845Z,100011.16
2023-04-02T04:02:57.425Z,100011.94
2023-04-02T04:05:01.153Z,100014.56
2023-04-02T04:07:04.594Z,100018.03
2023-04-02T04:09:11.994Z,100020.50
2023-04-02T04:11:17.947Z,100025.72
2023-04-02T04:13:26.529Z,100021.44
2023-04-02T04:15:36.465Z,100030.94
2023-04-02T04:17:53.827Z,100026.66
2023-04-02T04:20:17.149Z,100031.81
2023-04-02T04:22:30.479Z,100037.78
2023-04-02T04:24:39.814Z,100029.13
2023-04-02T04:26:49.532Z,100038.66
2023-04-02T04:29:05.423Z,100038.69
2023-04-02T04:31:20.956Z,100037.00
2023-04-02T04:33:29.051Z,100046.47
2023-04-02T04:35:40.319Z,100050.00
2023-04-02T04:37:53.605Z,100049.97
2023-04-02T04:40:00.180Z,100050.84
2023-04-02T04:42:06.373Z,100062.03
2023-04-02T04:44:18.141Z,100063.78
2023-04-02T04:46:29.333Z,100065.50
2023-04-02T04:48:37.721Z,100070.69
2023-04-02T04:50:50.172Z,100074.22
2023-04-02T04:52:53.528Z,100075.09
2023-04-02T04:54:56.907Z,100082.00
2023-04-02T04:57:04.816Z,100079.47
2023-04-02T04:59:18.815Z,100083.81
2023-04-02T05:01:28.330Z,100082.97
2023-04-02T05:03:36.481Z,100095.06
2023-04-02T05:05:43.759Z,100090.78
2023-04-02T05:07:52.060Z,100091.63
2023-04-02T05:10:00.773Z,100100.28
2023-04-02T05:12:13.311Z,100101.22
2023-04-02T05:14:24.772Z,100103.78
2023-04-02T05:16:37.781Z,100106.34
2023-04-02T05:18:44.568Z,100111.56
2023-04-02T05:20:55.872Z,100114.97
2023-04-02T05:23:05.077Z,100114.13
2023-04-02T05:25:16.695Z,100114.97
2023-04-02T05:27:29.612Z,100121.06
2023-04-02T05:29:37.917Z,100121.06
2023-04-02T05:31:46.482Z,100124.56
2023-04-02T05:33:50.750Z,100134.94
2023-04-02T05:36:00.793Z,100137.53
2023-04-02T05:38:06.590Z,100138.38
2023-04-02T05:40:16.289Z,100142.72
2023-04-02T05:42:24.907Z,100153.94
2023-04-02T05:44:35.831Z,100149.59
2023-04-02T05:46:47.760Z,100153.06
2023-04-02T05:48:56.388Z,100159.09
2023-04-02T05:51:02.004Z,100166.03
2023-04-02T05:53:12.149Z,100165.22
2023-04-02T05:55:30.498Z,100167.81
2023-04-02T05:57:46.821Z,100166.97
2023-04-02T06:00:01.117Z,100166.97
2023-04-02T06:02:12.314Z,100172.16
2023-04-02T06:04:22.411Z,100179.94
2023-04-02T06:06:45.495Z,100183.44
2023-04-02T06:08:57.717Z,100182.56
2023-04-02T06:11:08.935Z,100186.03
2023-04-02T06:13:18.523Z,100184.28
2023-04-02T06:15:23.459Z,100188.59
2023-04-02T06:17:34.744Z,100196.34
2023-04-02T06:19:39.347Z,100200.69
2023-04-02T06:21:46.248Z,100202.38
2023-04-02T06:23:54.989Z,100213.69
2023-04-02T06:26:04.372Z,100210.31
2023-04-02T06:28:15.333Z,100207.72
2023-04-02T06:30:29.355Z,100205.97
2023-04-02T06:32:32.796Z,100211.25
2023-04-02T06:34:39.112Z,100219.06
2023-04-02T06:36:47.400Z,100213.03
2023-04-02T06:38:51.858Z,100222.59
2023-04-02T06:40:59.096Z,100224.31
2023-04-02T06:43:33.211Z,100234.66
2023-04-02T06:45:52.787Z,100239.75
2023-04-02T06:48:17.533Z,100244.19
2023-04-02T06:50:26.513Z,100252.00
2023-04-02T06:52:35.757Z,100246.00
2023-04-02T06:54:39.852Z,100258.97
2023-04-02T06:56:47.359Z,100262.50
2023-04-02T06:58:55.985Z,100258.22
2023-04-02T07:01:00.000Z,100261.75
2023-04-02T07:03:28.085Z,100259.16
2023-04-02T07:05:58.215Z,100264.44
2023-04-02T07:08:02.482Z,100268.88
2023-04-02T07:10:06.872Z,100275.69
2023-04-02T07:12:12.947Z,100268.91
2023-04-02T07:14:16.528Z,100283.50
2023-04-02T07:16:22.013Z,100286.19
2023-04-02T07:18:27.737Z,100288.78
2023-04-02T07:20:33.554Z,100290.56
2023-04-02T07:22:41.001Z,100298.41
2023-04-02T07:24:45.499Z,100295.81
2023-04-02T07:26:48.673Z,100304.53
2023-04-02T07:28:51.512Z,100303.69
2023-04-02T07:30:55.582Z,100307.19
2023-04-02T07:32:58.439Z,100313.25
2023-04-02T07:35:01.394Z,100325.34
2023-04-02T07:37:04.706Z,100320.16
2023-04-02T07:39:07.496Z,100321.94
2023-04-02T07:41:12.892Z,100328.88
2023-04-02T07:43:15.804Z,100328.88
2023-04-02T07:45:18.674Z,100331.47
2023-04-02T07:47:21.431Z,100329.81
2023-04-02T07:49:24.354Z,100338.50
2023-04-02T07:51:27.261Z,100346.38
2023-04-02T07:53:32.825Z,100342.06
2023-04-02T07:55:36.308Z,100355.84
2023-04-02T07:57:44.942Z,100354.09
2023-04-02T07:59:49.257Z,100353.13
2023-04-02T08:01:53.571Z,100356.53
2023-04-02T08:03:57.827Z,100362.69
2023-04-02T08:06:00.720Z,100360.22
2023-04-02T08:08:03.716Z,100359.50
2023-04-02T08:10:08.511Z,100373.47
2023-04-02T08:12:13.749Z,100368.13
2023-04-02T08:14:17.866Z,100374.28
2023-04-02T08:16:20.739Z,100375.16
2023-04-02T08:18:24.209Z,100379.56
2023-04-02T08:20:27.346Z,100382.22
2023-04-02T08:22:30.505Z,100382.28
2023-04-02T08:24:33.377Z,100388.38
2023-04-02T08:26:36.432Z,100374.53
2023-04-02T08:28:39.218Z,100390.22
2023-04-02T08:30:43.565Z,100387.66
2023-04-02T08:32:46.773Z,100398.06
2023-04-02T08:34:49.576Z,100396.34
2023-04-02T08:36:56.468Z,100401.63
2023-04-02T08:38:59.349Z,100407.66
2023-04-02T08:41:05.625Z,100416.41
2023-04-02T08:43:24.442Z,100423.31
2023-04-02T08:45:40.192Z,100430.28
2023-04-02T08:47:47.152Z,100414.66
2023-04-02T08:49:55.697Z,100425.09
2023-04-02T08:51:58.641Z,100424.31
2023-04-02T08:54:08.772Z,100432.19
2023-04-02T08:56:19.303Z,100437.34
2023-04-02T08:58:33.497Z,100441.66
2023-04-02T09:00:40.188Z,100438.31
2023-04-02T09:02:48.323Z,100440.91
2023-04-02T09:04:51.779Z,100449.50
2023-04-02T09:06:57.211Z,100440.00
2023-04-02T09:09:01.167Z,100453.03
2023-04-02T09:11:08.866Z,100454.84
2023-04-02T09:13:18.926Z,100459.16
2023-04-02T09:15:29.383Z,100460.94
2023-04-02T09:17:42.773Z,100468.75
2023-04-02T09:19:56.911Z,100466.19
2023-04-02T09:22:08.891Z,100467.97
2023-04-02T09:24:13.280Z,100470.59
2023-04-02T09:26:23.535Z,100474.94
2023-04-02T09:28:27.074Z,100477.56
2023-04-02T09:30:43.749Z,100479.38
2023-04-02T09:32:51.076Z,100487.19
2023-04-02T09:35:14.983Z,100489.84
2023-04-02T09:37:25.390Z,100484.63
2023-04-02T09:39:28.152Z,100493.28
2023-04-02T09:41:32.088Z,100491.50
2023-04-02T09:43:37.022Z,100502.81
2023-04-02T09:45:42.076Z,100508.03
2023-04-02T09:47:44.894Z,100508.06
2023-04-02T09:49:47.729Z,100508.09
2023-04-02T09:52:22.199Z,100516.06
2023-04-02T09:54:26.716Z,100516.06
2023-04-02T09:56:30.555Z,100523.06
2023-04-02T09:58:33.346Z,100513.56
2023-04-02T10:00:36.481Z,100517.09
2023-04-02T10:02:39.692Z,100518.88
2023-04-02T10:04:45.123Z,100513.56
2023-04-02T10:06:56.258Z,100521.34
2023-04-02T10:09:21.266Z,100530.09
2023-04-02T10:11:36.606Z,100530.13
2023-04-02T10:13:50.392Z,100531.91
2023-04-02T10:16:00.905Z,100532.78
2023-04-02T10:18:11.587Z,100544.03
2023-04-02T10:20:21.077Z,100550.19
2023-04-02T10:22:24.714Z,100547.56
2023-04-02T10:24:29.802Z,100551.84
2023-04-02T10:26:52.725Z,100559.50
2023-04-02T10:29:08.210Z,100568.00
2023-04-02T10:31:22.578Z,100575.63
2023-04-02T10:33:31.369Z,100575.25
2023-04-02T10:35:42.733Z,100577.63
2023-04-02T10:37:57.498Z,100581.06
2023-04-02T10:40:09.859Z,100593.97
2023-04-02T10:42:21.384Z,100583.34
2023-04-02T10:44:37.459Z,100598.19
2023-04-02T10:46:50.437Z,100590.25
2023-04-02T10:49:05.339Z,100605.63
2023-04-02T10:51:15.049Z,100611.72
2023-04-02T10:53:20.425Z,100619.31
2023-04-02T10:55:30.663Z,100615.72
2023-04-02T10:57:39.284Z,100615.53
2023-04-02T10:59:46.362Z,100621.69
2023-04-02T11:01:52.075Z,100619.06
2023-04-02T11:04:00.209Z,100639.88
2023-04-02T11:06:12.078Z,100637.06
2023-04-02T11:08:19.321Z,100637.84
2023-04-02T11:10:24.552Z,100638.81
2023-04-02T11:12:44.020Z,100650.94
2023-04-02T11:14:46.987Z,100635.47
2023-04-02T11:16:51.051Z,100642.94
2023-04-02T11:19:11.178Z,100649.94
2023-04-02T11:21:55.152Z,100656.91
2023-04-02T11:24:02.445Z,100669.94
2023-04-02T11:26:23.797Z,100664.47
2023-04-02T11:28:30.493Z,100664.34
2023-04-02T11:30:33.751Z,100678.28
2023-04-02T11:32:39.387Z,100674.84
2023-04-02T11:35:07.034Z,100678.25
2023-04-02T11:37:11.784Z,100681.88
2023-04-02T11:39:17.427Z,100680.13
2023-04-02T11:41:58.126Z,100689.69
2023-04-02T11:44:02.689Z,100692.09
2023-04-02T11:46:07.027Z,100694.00
2023-04-02T11:48:30.654Z,100694.00
2023-04-02T11:50:35.807Z,100690.38
2023-04-02T11:52:52.973Z,100703.31
2023-04-02T11:54:59.151Z,100703.50
2023-04-02T11:57:11.701Z,100712.97
2023-04-02T11:59:23.998Z,100711.06
2023-04-02T12:01:57.666Z,100707.41
2023-04-02T12:04:25.212Z,100718.88
2023-04-02T12:06:42.542Z,100716.22
2023-04-02T12:08:58.258Z,100721.50
2023-04-02T12:11:03.382Z,100721.22
2023-04-02T12:13:06.436Z,100729.06
2023-04-02T12:15:32.946Z,100732.69
2023-04-02T12:17:38.002Z,100731.69
2023-04-02T12:19:41.035Z,100734.09
2023-04-02T12:21:47.302Z,100733.31
2023-04-02T12:23:54.018Z,100737.47
2023-04-02T12:26:01.222Z,100743.53
2023-04-02T12:28:06.383Z,100750.41
2023-04-02T12:30:17.829Z,100750.72
2023-04-02T12:32:27.202Z,100759.19
2023-04-02T12:34:31.997Z,100758.19
2023-04-02T12:36:36.174Z,100767.69
2023-04-02T12:38:46.759Z,100765.28
2023-04-02T12:40:53.825Z,100768.56
2023-04-02T12:42:56.732Z,100771.97
2023-04-02T12:45:00.412Z,100765.47
2023-04-02T12:47:06.064Z,100781.34
2023-04-02T12:49:14.916Z,100780.84
2023-04-02T12:51:17.855Z,100777.41
2023-04-02T12:53:23.449Z,100787.25
2023-04-02T12:55:28.010Z,100781.97
2023-04-02T12:57:39.785Z,100787.13
2023-04-02T12:59:44.602Z,100790.44
2023-04-02T13:01:56.634Z,100791.56
2023-04-02T13:04:08.284Z,100791.47
2023-04-02T13:06:23.372Z,100789.72
2023-04-02T13:08:29.462Z,100795.28
2023-04-02T13:10:32.654Z,100798.88
2023-04-02T13:12:38.507Z,100798.13
2023-04-02T13:14:41.806Z,100803.28
2023-04-02T13:16:48.658Z,100807.13
2023-04-02T13:18:52.062Z,100804.38
2023-04-02T13:21:00.349Z,100804.19
2023-04-02T13:23:32.335Z,100807.78
2023-04-02T13:25:37.643Z,100811.34
2023-04-02T13:27:40.450Z,100815.63
2023-04-02T13:29:43.265Z,100812.81
2023-04-02T13:31:47.473Z,100818.13
2023-04-02T13:33:50.381Z,100831.13
2023-04-02T13:35:53.216Z,100822.25
2023-04-02T13:37:57.764Z,100822.22
2023-04-02T13:40:00.690Z,100823.13
2023-04-02T13:42:06.582Z,100825.69
2023-04-02T13:44:19.639Z,100828.38
2023-04-02T13:46:24.076Z,100834.59
2023-04-02T13:48:28.757Z,100840.75
2023-04-02T13:50:33.329Z,100840.75
2023-04-02T13:52:36.332Z,100841.34
2023-04-02T13:54:46.762Z,100842.56
2023-04-02T13:56:49.665Z,100862.56
2023-04-02T13:58:52.834Z,100858.88
2023-04-02T14:00:56.094Z,100859.34
2023-04-02T14:03:05.654Z,100869.63
2023-04-02T14:05:18.751Z,100874.94
2023-04-02T14:07:33.086Z,100875.78
2023-04-02T14:09:52.991Z,100880.16
2023-04-02T14:12:02.191Z,100887.88
2023-04-02T14:14:20.514Z,100880.94
2023-04-02T14:16:45.814Z,100894.75
2023-04-02T14:19:06.395Z,100895.34
2023-04-02T14:21:19.546Z,100903.09
2023-04-02T14:23:37.543Z,100908.38
2023-04-02T14:25:48.558Z,100908.00
2023-04-02T14:28:02.883Z,100914.78
2023-04-02T14:30:09.775Z,100921.72
2023-04-02T14:32:19.572Z,100925.28
2023-04-02T14:34:33.095Z,100918.84
2023-04-02T14:36:47.485Z,100926.53
2023-04-02T14:38:56.688Z,100928.22
2023-04-02T14:41:09.311Z,100932.16
2023-04-02T14:43:16.953Z,100937.38
2023-04-02T14:45:32.028Z,100940.53
2023-04-02T14:47:40.042Z,100947.91
2023-04-02T14:49:46.809Z,100944.31
2023-04-02T14:51:52.869Z,100947.59
2023-04-02T14:54:02.861Z,100951.72
2023-04-02T14:56:09.054Z,100953.41
2023-04-02T14:58:19.838Z,100957.81
2023-04-02T15:00:31.616Z,100964.47
2023-04-02T15:02:42.273Z,100963.53
2023-04-02T15:05:01.559Z,100968.75
2023-04-02T15:07:14.801Z,100978.00
2023-04-02T15:09:23.602Z,100977.03
2023-04-02T15:11:34.383Z,100977.28
2023-04-02T15:13:39.466Z,100986.25
2023-04-02T15:15:45.760Z,100996.63
2023-04-02T15:17:48.618Z,100986.25
2023-04-02T15:19:58.845Z,100998.06
2023-04-02T15:22:14.756Z,100994.56
2023-04-02T15:24:23.957Z,101001.59
2023-04-02T15:26:34.649Z,101002.44
2023-04-02T15:28:44.685Z,100999.53
2023-04-02T15:30:53.787Z,101005.63
2023-04-02T15:33:18.134Z,101018.53
2023-04-02T15:35:31.540Z,101013.78
2023-04-02T15:37:40.849Z,101023.84
2023-04-02T15:40:01.660Z,101042.19
2023-04-02T15:42:21.160Z,101029.59
2023-04-02T15:44:24.069Z,101030.53
2023-04-02T15:46:32.402Z,101031.00
2023-04-02T15:48:57.296Z,101029.88
2023-04-02T15:51:11.163Z,101039.88
2023-04-02T15:53:29.201Z,101040.63
2023-04-02T15:55:40.740Z,101044.13
2023-04-02T15:58:06.400Z,101047.88
2023-04-02T16:00:22.183Z,101054.50
2023-04-02T16:02:52.731Z,101062.25
2023-04-02T16:05:03.351Z,101057.88
2023-04-02T16:07:36.708Z,101062.41
2023-04-02T16:09:50.906Z,101064.59
2023-04-02T16:12:00.563Z,101064.59
2023-04-02T16:14:19.595Z,101070.25
2023-04-02T16:16:27.875Z,101065.75
2023-04-02T16:18:39.195Z,101079.28
2023-04-02T16:20:47.268Z,101076.06
2023-04-02T16:23:00.381Z,101079.97
2023-04-02T16:25:14.497Z,101092.66
2023-04-02T16:27:24.674Z,101086.09
2023-04-02T16:29:53.795Z,101090.84
2023-04-02T16:32:03.259Z,101094.41
2023-04-02T16:34:15.938Z,101102.88
2023-04-02T16:36:28.362Z,101106.16
2023-04-02T16:38:50.053Z,101107.69
2023-04-02T16:41:08.229Z,101116.78
2023-04-02T16:43:23.021Z,101116.69
2023-04-02T16:45:36.585Z,101125.97
2023-04-02T16:47:56.065Z,101127.69
2023-04-02T16:50:04.801Z,101133.22
2023-04-02T16:52:20.248Z,101139.22
2023-04-02T16:54:31.707Z,101147.56
2023-04-02T16:56:49.576Z,101142.13
2023-04-02T16:59:01.050Z,101147.44
2023-04-02T17:01:11.884Z,101154.66
2023-04-02T17:03:38.604Z,101163.59
2023-04-02T17:05:52.858Z,101168.75
2023-04-02T17:08:05.834Z,101181.56
2023-04-02T17:10:21.308Z,101170.56
2023-04-02T17:12:29.762Z,101180.97
2023-04-02T17:14:39.980Z,101180.75
2023-04-02T17:16:46.210Z,101181.13
2023-04-02T17:18:50.547Z,101184.91
2023-04-02T17:20:54.307Z,101186.41
2023-04-02T17:23:05.929Z,101195.75
2023-04-02T17:25:19.290Z,101196.03
2023-04-02T17:27:29.674Z,101206.44
2023-04-02T17:29:37.228Z,101201.94
2023-04-02T17:31:41.977Z,101215.06
2023-04-02T17:33:46.164Z,101219.47
2023-04-02T17:36:02.614Z,101234.56
2023-04-02T17:38:12.697Z,101235.66
2023-04-02T17:40:26.190Z,101235.44
2023-04-02T17:42:42.806Z,101246.56
2023-04-02T17:44:57.209Z,101247.97
2023-04-02T17:47:04.562Z,101252.25
2023-04-02T17:49:22.792Z,101256.19
2023-04-02T17:51:34.410Z,101262.66
2023-04-02T17:53:54.736Z,101270.44
2023-04-02T17:56:08.874Z,101269.31
2023-04-02T17:58:26.671Z,101264.09
2023-04-02T18:00:47.239Z,101270.09
2023-04-02T18:03:06.371Z,101276.72
2023-04-02T18:05:21.435Z,101287.22
2023-04-02T18:07:36.708Z,101283.19
2023-04-02T18:09:45.205Z,101296.88
2023-04-02T18:11:56.492Z,101304.78
2023-04-02T18:14:01.354Z,101306.47
2023-04-02T18:16:18.847Z,101308.66
2023-04-02T18:18:34.335Z,101318.16
2023-04-02T18:20:44.706Z,101318.28
2023-04-02T18:22:52.890Z,101329.69
2023-04-02T18:25:20.761Z,101330.00
2023-04-02T18:27:38.127Z,101348.59
2023-04-02T18:29:48.218Z,101343.19
2023-04-02T18:32:00.784Z,101340.00
2023-04-02T18:34:21.632Z,101350.09
2023-04-02T18:36:38.126Z,101351.31
2023-04-02T18:38:47.344Z,101367.31
2023-04-02T18:41:03.710Z,101374.06
2023-04-02T18:43:17.088Z,101374.78
2023-04-02T18:45:25.938Z,101382.53
2023-04-02T18:47:36.194Z,101388.91
2023-04-02T18:49:41.317Z,101390.00
2023-04-02T18:51:45.889Z,101392.41
2023-04-02T18:53:51.977Z,101400.97
2023-04-02T18:55:58.200Z,101409.47
2023-04-02T18:58:06.382Z,101399.69
2023-04-02T19:00:22.968Z,101407.44
2023-04-02T19:02:36.597Z,101416.13
2023-04-02T19:04:41.148Z,101418.47
2023-04-02T19:06:48.607Z,101421.28
2023-04-02T19:08:55.985Z,101438.78
2023-04-02T19:11:02.126Z,101429.88
2023-04-02T19:13:09.072Z,101445.75
2023-04-02T19:15:20.152Z,101446.59
2023-04-02T19:17:30.978Z,101442.97
2023-04-02T19:19:41.069Z,101455.41
2023-04-02T19:22:03.879Z,101450.22
2023-04-02T19:24:22.588Z,101471.63
2023-04-02T19:26:31.520Z,101467.81
2023-04-02T19:28:41.879Z,101472.84
2023-04-02T19:31:00.205Z,101469.56
2023-04-02T19:33:11.549Z,101474.25
2023-04-02T19:35:23.813Z,101479.72
2023-04-02T19:37:37.650Z,101494.97
2023-04-02T19:40:15.257Z,101496.66
2023-04-02T19:42:34.469Z,101497.75
2023-04-02T19:44:46.695Z,101495.50
2023-04-02T19:46:51.433Z,101500.13
2023-04-02T19:49:03.155Z,101505.19
2023-04-02T19:51:05.962Z,101514.72
2023-04-02T19:53:10.477Z,101515.25
2023-04-02T19:55:13.532Z,101521.38
2023-04-02T19:57:16.885Z,101517.69
2023-04-02T19:59:19.796Z,101517.56
2023-04-02T20:01:23.247Z,101527.91
2023-04-02T20:03:27.354Z,101521.59
2023-04-02T20:05:30.092Z,101532.13
2023-04-02T20:07:32.915Z,101533.34
2023-04-02T20:09:37.082Z,101535.25
2023-04-02T20:11:40.063Z,101543.22
2023-04-02T20:13:42.938Z,101544.56
2023-04-02T20:15:47.165Z,101546.19
2023-04-02T20:17:50.144Z,101545.47
2023-04-02T20:19:52.992Z,101546.75
2023-04-02T20:21:56.251Z,101554.31
2023-04-02T20:23:59.082Z,101552.84
2023-04-02T20:26:04.544Z,101563.81
2023-04-02T20:28:07.539Z,101562.06
2023-04-02T20:30:10.908Z,101568.31
2023-04-02T20:32:14.046Z,101575.38
2023-04-02T20:34:17.031Z,101573.69
2023-04-02T20:36:21.686Z,101567.78
2023-04-02T20:38:24.453Z,101577.22
2023-04-02T20:40:27.384Z,101581.50
2023-04-02T20:42:32.281Z,101583.00
2023-04-02T20:44:35.439Z,101585.28
2023-04-02T20:46:38.484Z,101589.72
2023-04-02T20:48:41.653Z,101587.28
2023-04-02T20:50:46.120Z,101591.28
2023-04-02T20:52:48.985Z,101597.78
2023-04-02T20:54:52.994Z,101596.34
2023-04-02T20:56:55.830Z,101600.19
2023-04-02T20:59:00.066Z,101604.72
2023-04-02T21:01:08.423Z,101600.84
2023-04-02T21:03:11.781Z,101609.13
2023-04-02T21:05:14.742Z,101615.34
2023-04-02T21:07:17.542Z,101617.69
2023-04-02T21:09:21.367Z,101619.47
2023-04-02T21:11:24.553Z,101617.69
2023-04-02T21:13:29.748Z,101627.16
2023-04-02T21:15:34.624Z,101625.38
2023-04-02T21:17:37.695Z,101634.91
2023-04-02T21:19:40.641Z,101628.63
2023-04-02T21:21:44.211Z,101631.00
2023-04-02T21:23:47.052Z,101637.94
2023-04-02T21:25:56.360Z,101641.72
2023-04-02T21:27:59.417Z,101637.97
2023-04-02T21:30:02.201Z,101645.47
2023-04-02T21:32:17.939Z,101643.94
2023-04-02T21:34:23.437Z,101643.94
2023-04-02T21:36:28.684Z,101647.63
2023-04-02T21:38:31.616Z,101638.38
2023-04-02T21:40:34.407Z,101641.06
2023-04-02T21:42:37.180Z,101642.81
2023-04-02T21:44:40.070Z,101644.66
2023-04-02T21:46:44.217Z,101637.44
2023-04-02T21:48:49.753Z,101643.03
2023-04-02T21:50:52.617Z,101644.16
2023-04-02T21:52:55.560Z,101646.13
2023-04-02T21:54:58.331Z,101644.31
2023-04-02T21:57:01.188Z,101649.25
2023-04-02T21:59:05.465Z,101646.31
2023-04-02T22:01:14.004Z,101652.66
2023-04-02T22:03:31.094Z,101652.56
2023-04-02T22:05:35.955Z,101642.66
2023-04-02T22:07:38.891Z,101649.31
2023-04-02T22:09:41.643Z,101657.50
2023-04-02T22:11:46.438Z,101651.63
2023-04-02T22:13:50.299Z,101644.06
2023-04-02T22:15:53.064Z,101650.13
2023-04-02T22:17:55.958Z,101649.63
2023-04-02T22:19:58.719Z,101650.41
2023-04-02T22:22:03.036Z,101657.38
2023-04-02T22:24:09.380Z,101653.59
2023-04-02T22:26:16.148Z,101653.94
2023-04-02T22:28:18.946Z,101657.56
2023-04-02T22:30:21.724Z,101657.16
2023-04-02T22:32:24.599Z,101659.47
2023-04-02T22:34:27.432Z,101662.75
2023-04-02T22:36:31.108Z,101660.03
2023-04-02T22:38:35.603Z,101659.03
2023-04-02T22:40:38.500Z,101666.00
2023-04-02T22:42:41.261Z,101667.56
2023-04-02T22:44:44.176Z,101678.47
2023-04-02T22:46:46.963Z,101673.09
2023-04-02T22:48:50.807Z,101670.06
2023-04-02T22:50:53.792Z,101673.69
2023-04-02T22:52:56.805Z,101673.09
2023-04-02T22:55:00.907Z,101671.91
2023-04-02T22:57:03.828Z,101668.13
2023-04-02T22:59:06.709Z,101666.06
2023-04-02T23:01:13.217Z,101667.75
2023-04-02T23:03:16.165Z,101672.03
2023-04-02T23:05:19.380Z,101670.50
2023-04-02T23:07:22.235Z,101665.25
2023-04-02T23:09:25.054Z,101664.66
2023-04-02T23:11:29.428Z,101668.44
2023-04-02T23:13:32.924Z,101656.56
2023-04-02T23:15:35.703Z,101657.75
2023-04-02T23:17:38.652Z,101660.09
2023-04-02T23:19:41.456Z,101662.47
2023-04-02T23:21:44.352Z,101665.41
2023-04-02T23:23:48.149Z,101671.00
2023-04-02T23:25:50.972Z,101664.41
2023-04-02T23:27:55.594Z,101661.84
2023-04-02T23:29:58.523Z,101654.44
2023-04-02T23:32:01.340Z,101654.78
2023-04-02T23:34:04.580Z,101661.66
2023-04-02T23:36:08.502Z,101655.59
2023-04-02T23:38:11.355Z,101655.44
2023-04-02T23:40:14.165Z,101656.78
2023-04-02T23:42:17.432Z,101646.16
2023-04-02T23:44:21.554Z,101666.81
2023-04-02T23:46:24.597Z,101658.16
2023-04-02T23:48:27.431Z,101661.81
2023-04-02T23:50:30.431Z,101657.22
2023-04-02T23:52:33.271Z,101654.56
2023-04-02T23:54:36.053Z,101656.78
2023-04-02T23:56:39.106Z,101657.22
2023-04-02T23:58:41.866Z,101657.06
